Yokohama, Japan
Current Conditions -  °F | °C
As of 7:00 PM on Tuesday 27 Jan 2015 (Local Time) from RJTT Reporting Station
Broken Clouds Broken Clouds  
Wind Chill: 54°   Ceiling: Unl
Heat Index: 54°   Visibility: 6mi
Dew Point: 34°   Wind: 13mph
Humidity: 47%   Direction: 340°NNW
Pressure: 29.77"   Gusts: NA
Location:  35.47°N, 139.62°E
Report Text: RJTT 271000Z 34011KT 9999 FEW050 BKN/// 12/01 Q1008 NOSIG
Loading
Personal Weather Stations






























Interactive Weather Map New forecast layout! Learn more

10-Day Weather Forecast

Advertisements
Track Severe Weather on mobile